createdAt,value
2023-03-31T00:02:46.904Z,13.38
2023-03-31T00:05:53.949Z,13.75
2023-03-31T00:09:02.774Z,13.60
2023-03-31T00:12:05.809Z,13.39
2023-03-31T00:15:09.048Z,13.56
2023-03-31T00:18:12.564Z,13.95
2023-03-31T00:21:34.166Z,14.42
2023-03-31T00:24:37.914Z,14.55
2023-03-31T00:27:45.141Z,15.09
2023-03-31T00:30:49.045Z,14.94
2023-03-31T00:33:52.693Z,15.26
2023-03-31T00:36:58.376Z,15.87
2023-03-31T00:40:02.716Z,16.15
2023-03-31T00:43:29.694Z,16.91
2023-03-31T00:46:42.851Z,16.23
2023-03-31T00:49:54.860Z,15.99
2023-03-31T00:53:11.736Z,16.13
2023-03-31T00:56:17.260Z,16.56
2023-03-31T00:59:21.753Z,16.75
2023-03-31T01:02:28.491Z,16.61
2023-03-31T01:05:44.344Z,16.84
2023-03-31T01:08:50.697Z,17.30
2023-03-31T01:11:54.823Z,17.35
2023-03-31T01:14:58.653Z,17.50
2023-03-31T01:18:04.395Z,18.15
2023-03-31T01:21:31.194Z,18.22
2023-03-31T01:25:02.630Z,19.01
2023-03-31T01:28:12.530Z,18.31
2023-03-31T01:31:47.085Z,18.42
2023-03-31T01:35:10.429Z,18.42
2023-03-31T01:38:34.943Z,19.18
2023-03-31T01:42:08.291Z,19.39
2023-03-31T01:45:31.884Z,19.81
2023-03-31T01:48:50.075Z,19.41
2023-03-31T01:52:18.181Z,18.97
2023-03-31T01:55:49.080Z,19.51
2023-03-31T01:59:16.839Z,19.49
2023-03-31T02:02:37.817Z,19.30
2023-03-31T02:06:05.237Z,19.29
2023-03-31T02:09:21.636Z,19.69
2023-03-31T02:12:28.885Z,19.52
2023-03-31T02:15:38.818Z,19.48
2023-03-31T02:18:45.202Z,19.70
2023-03-31T02:21:50.560Z,19.74
2023-03-31T02:24:56.963Z,20.22
2023-03-31T02:28:08.983Z,20.87
2023-03-31T02:31:16.412Z,20.80
2023-03-31T02:34:20.162Z,20.81
2023-03-31T02:37:25.041Z,21.24
2023-03-31T02:40:28.291Z,21.68
2023-03-31T02:43:32.243Z,21.65
2023-03-31T02:46:36.223Z,21.72
2023-03-31T02:49:45.461Z,21.82
2023-03-31T02:53:11.850Z,21.82
2023-03-31T02:56:59.790Z,22.21
2023-03-31T03:00:37.925Z,22.10
2023-03-31T03:04:07.126Z,21.89
2023-03-31T03:07:23.641Z,21.74
2023-03-31T03:10:51.732Z,21.49
2023-03-31T03:14:24.841Z,21.22
2023-03-31T03:17:38.746Z,21.33
2023-03-31T03:20:51.514Z,21.29
2023-03-31T03:23:55.369Z,20.90
2023-03-31T03:26:58.622Z,20.71
2023-03-31T03:30:03.207Z,20.47
2023-03-31T03:33:07.600Z,20.40
2023-03-31T03:36:11.867Z,20.18
2023-03-31T03:39:14.777Z,19.87
2023-03-31T03:42:17.590Z,19.61
2023-03-31T03:45:21.048Z,19.50
2023-03-31T03:48:24.831Z,19.38
2023-03-31T03:51:52.171Z,19.44
2023-03-31T03:54:55.286Z,19.46
2023-03-31T03:57:58.729Z,19.53
2023-03-31T04:01:02.355Z,19.39
2023-03-31T04:04:06.077Z,19.47
2023-03-31T04:07:08.896Z,19.51
2023-03-31T04:10:11.740Z,19.66
2023-03-31T04:13:14.529Z,19.69
2023-03-31T04:16:17.831Z,19.78
2023-03-31T04:19:22.848Z,19.71
2023-03-31T04:22:29.567Z,19.51
2023-03-31T04:25:32.890Z,19.46
2023-03-31T04:28:37.127Z,19.58
2023-03-31T04:31:44.829Z,19.55
2023-03-31T04:34:48.108Z,19.61
2023-03-31T04:37:59.653Z,19.64
2023-03-31T04:41:03.177Z,19.59
2023-03-31T04:44:07.007Z,19.52
2023-03-31T04:47:10.016Z,19.45
2023-03-31T04:50:16.170Z,19.59
2023-03-31T04:53:20.762Z,19.65
2023-03-31T04:56:23.754Z,19.56
2023-03-31T04:59:27.036Z,19.57
2023-03-31T05:02:30.999Z,19.57
2023-03-31T05:05:35.235Z,19.68
2023-03-31T05:08:38.157Z,19.74
2023-03-31T05:11:41.102Z,19.73
2023-03-31T05:14:45.052Z,19.70
2023-03-31T05:17:48.695Z,19.80
2023-03-31T05:20:51.613Z,19.90
2023-03-31T05:23:54.526Z,19.84
2023-03-31T05:26:58.259Z,19.77
2023-03-31T05:30:01.559Z,19.88
2023-03-31T05:33:05.702Z,20.00
2023-03-31T05:36:15.951Z,20.18
2023-03-31T05:39:20.307Z,20.00
2023-03-31T05:42:23.970Z,19.96
2023-03-31T05:45:27.085Z,20.17
2023-03-31T05:48:30.542Z,20.37
2023-03-31T05:51:34.705Z,20.50
2023-03-31T05:54:37.638Z,20.79
2023-03-31T05:57:41.623Z,20.82
2023-03-31T06:00:45.200Z,20.97
2023-03-31T06:03:49.370Z,21.00
2023-03-31T06:06:52.299Z,20.94
2023-03-31T06:09:55.205Z,20.74
2023-03-31T06:12:58.807Z,20.72
2023-03-31T06:16:02.716Z,20.75
2023-03-31T06:19:06.585Z,20.72
2023-03-31T06:22:09.525Z,20.80
2023-03-31T06:25:12.854Z,21.04
2023-03-31T06:28:16.047Z,21.26
2023-03-31T06:31:21.595Z,21.51
2023-03-31T06:34:24.588Z,21.85
2023-03-31T06:37:27.525Z,22.31
2023-03-31T06:40:30.920Z,22.78
2023-03-31T06:43:33.995Z,23.01
2023-03-31T06:46:37.510Z,23.02
2023-03-31T06:49:40.533Z,22.79
2023-03-31T06:52:44.639Z,22.49
2023-03-31T06:55:48.984Z,22.17
2023-03-31T06:58:52.182Z,21.98
2023-03-31T07:01:55.193Z,21.96
2023-03-31T07:04:58.190Z,22.09
2023-03-31T07:08:01.754Z,22.24
2023-03-31T07:11:05.474Z,22.17
2023-03-31T07:14:09.715Z,22.11
2023-03-31T07:17:13.376Z,22.19
2023-03-31T07:20:18.002Z,22.35
2023-03-31T07:23:21.394Z,22.42
2023-03-31T07:26:25.435Z,22.26
2023-03-31T07:29:29.110Z,22.34
2023-03-31T07:32:34.210Z,22.49
2023-03-31T07:35:43.041Z,22.69
2023-03-31T07:38:49.537Z,22.71
2023-03-31T07:41:53.205Z,22.77
2023-03-31T07:47:59.441Z,22.95
2023-03-31T07:51:02.748Z,22.92
2023-03-31T07:54:11.190Z,23.02
2023-03-31T07:57:15.040Z,23.04
2023-03-31T08:00:19.277Z,23.07
2023-03-31T08:03:23.117Z,22.99
2023-03-31T08:06:27.550Z,22.66
2023-03-31T08:09:30.820Z,22.45
2023-03-31T08:12:34.520Z,22.30
2023-03-31T08:15:37.722Z,22.34
2023-03-31T08:18:41.457Z,22.30
2023-03-31T08:21:45.055Z,22.24
2023-03-31T08:24:48.668Z,22.03
2023-03-31T08:27:52.475Z,22.09
2023-03-31T08:30:57.091Z,22.33
2023-03-31T08:34:01.023Z,22.57
2023-03-31T08:37:05.596Z,22.77
2023-03-31T08:40:15.783Z,22.88
2023-03-31T08:43:27.491Z,22.94
2023-03-31T08:46:36.005Z,22.40
2023-03-31T08:49:45.250Z,21.56
2023-03-31T08:53:09.558Z,20.77
2023-03-31T08:56:21.886Z,20.24
2023-03-31T08:59:34.682Z,19.54
2023-03-31T09:03:15.455Z,18.99
2023-03-31T09:06:33.305Z,18.64
2023-03-31T09:09:54.570Z,18.36
2023-03-31T09:13:43.043Z,18.21
2023-03-31T09:17:11.147Z,17.94
2023-03-31T09:20:23.839Z,17.49
2023-03-31T09:23:26.659Z,17.24
2023-03-31T09:26:41.674Z,17.09
2023-03-31T09:30:15.210Z,16.99
2023-03-31T09:33:23.148Z,16.96
2023-03-31T09:36:26.951Z,16.90
2023-03-31T09:39:30.944Z,16.86
2023-03-31T09:42:39.378Z,16.80
2023-03-31T09:45:44.166Z,16.52
2023-03-31T09:49:02.557Z,16.43
2023-03-31T09:52:33.539Z,16.54
2023-03-31T09:55:51.663Z,16.69
2023-03-31T09:59:01.755Z,16.61
2023-03-31T10:02:22.549Z,16.57
2023-03-31T10:05:30.456Z,16.45
2023-03-31T10:08:48.869Z,16.44
2023-03-31T10:12:06.896Z,16.50
2023-03-31T10:15:29.595Z,16.42
2023-03-31T10:18:39.029Z,16.24
2023-03-31T10:21:47.386Z,15.99
2023-03-31T10:24:54.506Z,15.74
2023-03-31T10:27:59.347Z,15.55
2023-03-31T10:31:04.141Z,15.28
2023-03-31T10:34:17.641Z,15.10
2023-03-31T10:37:24.803Z,14.84
2023-03-31T10:40:32.848Z,14.65
2023-03-31T10:43:44.513Z,14.51
2023-03-31T10:46:50.587Z,14.22
2023-03-31T10:49:58.224Z,14.06
2023-03-31T10:53:12.100Z,13.90
2023-03-31T10:56:36.870Z,13.69
2023-03-31T10:59:53.309Z,13.49
2023-03-31T11:03:21.424Z,13.24
2023-03-31T11:06:49.414Z,13.25
2023-03-31T11:10:30.227Z,12.99
2023-03-31T11:13:39.567Z,12.88
2023-03-31T11:17:11.427Z,12.92
2023-03-31T11:20:39.819Z,12.84
2023-03-31T11:23:43.874Z,12.60
2023-03-31T11:26:58.384Z,12.45
2023-03-31T11:30:16.464Z,12.47
2023-03-31T11:33:46.959Z,12.55
2023-03-31T11:37:09.083Z,12.63
2023-03-31T11:40:39.737Z,12.27
2023-03-31T11:44:04.503Z,12.20
2023-03-31T11:47:14.478Z,12.22
2023-03-31T11:50:25.648Z,11.92
2023-03-31T11:53:37.173Z,11.72
2023-03-31T11:56:42.236Z,11.79
2023-03-31T11:59:49.587Z,11.76
2023-03-31T12:03:17.342Z,11.80
2023-03-31T12:06:23.930Z,11.64
2023-03-31T12:09:38.041Z,11.46
2023-03-31T12:12:45.204Z,11.21
2023-03-31T12:16:26.406Z,11.10
2023-03-31T12:19:55.284Z,10.87
2023-03-31T12:23:02.417Z,10.77
2023-03-31T12:26:46.972Z,10.89
2023-03-31T12:29:57.196Z,10.90
2023-03-31T12:33:16.543Z,10.79
2023-03-31T12:36:45.490Z,10.60
2023-03-31T12:40:12.105Z,10.53
2023-03-31T12:43:46.549Z,10.16
2023-03-31T12:47:02.563Z,9.64
2023-03-31T12:50:40.171Z,9.34
2023-03-31T12:54:05.525Z,9.13
2023-03-31T12:57:09.550Z,9.05
2023-03-31T13:00:22.621Z,8.87
2023-03-31T13:03:49.591Z,8.79
2023-03-31T13:06:56.342Z,8.73
2023-03-31T13:10:22.483Z,8.49
2023-03-31T13:13:27.073Z,8.38
2023-03-31T13:16:35.223Z,8.28
2023-03-31T13:19:42.574Z,8.15
2023-03-31T13:22:51.058Z,7.79
2023-03-31T13:25:56.584Z,7.80
2023-03-31T13:29:21.204Z,7.74
2023-03-31T13:32:27.278Z,7.61
2023-03-31T13:35:34.546Z,7.59
2023-03-31T13:39:14.647Z,7.31
2023-03-31T13:42:26.641Z,7.12
2023-03-31T13:46:11.272Z,7.01
2023-03-31T13:49:42.848Z,6.98
2023-03-31T13:53:40.070Z,7.28
2023-03-31T13:57:20.992Z,7.33
2023-03-31T14:00:27.821Z,7.31
2023-03-31T14:04:04.819Z,7.14
2023-03-31T14:07:10.970Z,7.18
2023-03-31T14:10:33.813Z,7.08
2023-03-31T14:13:37.383Z,7.01
2023-03-31T14:16:54.021Z,6.83
2023-03-31T14:20:23.215Z,6.82
2023-03-31T14:24:09.872Z,6.82
2023-03-31T14:27:22.617Z,6.49
2023-03-31T14:31:21.676Z,6.39
2023-03-31T14:35:04.300Z,6.26
2023-03-31T14:38:16.931Z,6.21
2023-03-31T14:41:30.105Z,6.24
2023-03-31T14:48:16.888Z,5.61
2023-03-31T14:51:30.827Z,5.42
2023-03-31T14:55:00.680Z,5.24
2023-03-31T14:58:04.858Z,5.11
2023-03-31T15:01:11.151Z,5.03
2023-03-31T15:04:19.012Z,4.93
2023-03-31T15:07:24.560Z,4.90
2023-03-31T15:10:43.098Z,4.79
2023-03-31T15:14:03.573Z,4.68
2023-03-31T15:17:22.904Z,4.46
2023-03-31T15:20:29.960Z,4.23
2023-03-31T15:23:33.553Z,4.13
2023-03-31T15:26:42.127Z,4.10
2023-03-31T15:29:49.956Z,4.10
2023-03-31T15:32:56.847Z,4.03
2023-03-31T15:36:08.296Z,3.95
2023-03-31T15:39:15.090Z,3.89
2023-03-31T15:42:19.817Z,3.92
2023-03-31T15:45:32.336Z,3.96
2023-03-31T15:48:38.610Z,3.89
2023-03-31T15:51:42.918Z,3.91
2023-03-31T15:54:47.089Z,3.75
2023-03-31T15:57:55.439Z,3.73
2023-03-31T16:01:05.614Z,3.73
2023-03-31T16:04:15.358Z,3.96
2023-03-31T16:07:24.539Z,4.09
2023-03-31T16:10:28.335Z,4.09
2023-03-31T16:13:33.367Z,4.02
2023-03-31T16:16:37.380Z,3.87
2023-03-31T16:19:46.146Z,3.64
2023-03-31T16:22:53.448Z,3.70
2023-03-31T16:25:57.010Z,3.52
2023-03-31T16:29:01.567Z,3.41
2023-03-31T16:32:22.621Z,3.59
2023-03-31T16:35:31.486Z,3.34
2023-03-31T16:38:34.468Z,3.11
2023-03-31T16:41:39.175Z,3.15
2023-03-31T16:44:42.712Z,3.06
2023-03-31T16:47:46.489Z,3.01
2023-03-31T16:50:51.951Z,3.13
2023-03-31T16:53:57.568Z,3.05
2023-03-31T16:57:02.595Z,2.82
2023-03-31T17:00:06.593Z,2.58
2023-03-31T17:03:11.300Z,2.31
2023-03-31T17:06:14.814Z,2.27
2023-03-31T17:09:18.877Z,2.31
2023-03-31T17:12:21.852Z,2.17
2023-03-31T17:15:25.209Z,2.02
2023-03-31T17:18:28.680Z,2.00
2023-03-31T17:21:31.582Z,2.01
2023-03-31T17:24:34.921Z,1.96
2023-03-31T17:27:38.600Z,1.96
2023-03-31T17:30:44.707Z,1.92
2023-03-31T17:33:48.820Z,1.77
2023-03-31T17:36:52.493Z,1.80
2023-03-31T17:39:56.064Z,2.07
2023-03-31T17:42:58.979Z,2.17
2023-03-31T17:46:04.832Z,2.10
2023-03-31T17:49:09.293Z,1.89
2023-03-31T17:52:14.074Z,1.95
2023-03-31T17:55:18.388Z,1.80
2023-03-31T17:58:23.119Z,1.53
2023-03-31T18:01:27.297Z,1.49
2023-03-31T18:04:31.561Z,1.47
2023-03-31T18:07:37.019Z,1.39
2023-03-31T18:10:42.197Z,1.18
2023-03-31T18:13:46.219Z,1.11
2023-03-31T18:16:50.177Z,1.11
2023-03-31T18:19:54.154Z,1.10
2023-03-31T18:22:58.215Z,1.07
2023-03-31T18:26:02.422Z,1.08
2023-03-31T18:29:06.500Z,0.94
2023-03-31T18:32:10.762Z,0.91
2023-03-31T18:35:16.550Z,0.73
2023-03-31T18:38:21.071Z,0.73
2023-03-31T18:41:25.630Z,0.73
2023-03-31T18:44:28.899Z,0.71
2023-03-31T18:47:32.622Z,0.68
2023-03-31T18:50:36.844Z,0.75
2023-03-31T18:53:40.536Z,0.66
2023-03-31T18:56:44.710Z,0.64
2023-03-31T18:59:48.429Z,0.63
2023-03-31T19:02:52.361Z,0.56
2023-03-31T19:06:05.700Z,0.41
2023-03-31T19:09:09.466Z,0.20
2023-03-31T19:12:13.236Z,0.21
2023-03-31T19:15:17.484Z,0.25
2023-03-31T19:18:21.747Z,0.35
2023-03-31T19:21:25.550Z,0.41
2023-03-31T19:24:29.773Z,0.36
2023-03-31T19:27:33.665Z,0.32
2023-03-31T19:30:37.424Z,0.15
2023-03-31T19:33:41.090Z,0.00
2023-03-31T19:36:45.248Z,-0.02
2023-03-31T19:39:49.387Z,-0.01
2023-03-31T19:42:53.172Z,-0.02
2023-03-31T19:45:58.763Z,0.03
2023-03-31T19:49:02.577Z,-0.09
2023-03-31T19:52:06.686Z,-0.17
2023-03-31T19:55:10.308Z,-0.13
2023-03-31T19:58:14.731Z,-0.22
2023-03-31T20:01:26.825Z,-0.22
2023-03-31T20:04:29.954Z,-0.25
2023-03-31T20:07:33.851Z,-0.30
2023-03-31T20:10:37.959Z,-0.37
2023-03-31T20:13:42.554Z,-0.46
2023-03-31T20:16:45.905Z,-0.59
2023-03-31T20:19:49.235Z,-0.53
2023-03-31T20:22:52.939Z,-0.44
2023-03-31T20:25:57.408Z,-0.50
2023-03-31T20:29:05.308Z,-0.49
2023-03-31T20:32:09.577Z,-0.52
2023-03-31T20:35:14.453Z,-0.48
2023-03-31T20:38:18.256Z,-0.55
2023-03-31T20:41:24.991Z,-0.55
2023-03-31T20:44:28.399Z,-0.61
2023-03-31T20:47:36.096Z,-0.63
2023-03-31T20:50:40.372Z,-0.67
2023-03-31T20:53:46.444Z,-0.64
2023-03-31T20:56:51.550Z,-0.63
2023-03-31T20:59:55.694Z,-0.48
2023-03-31T21:02:59.118Z,-0.38
2023-03-31T21:06:11.587Z,-0.35
2023-03-31T21:09:17.358Z,-0.27
2023-03-31T21:12:21.285Z,-0.35
2023-03-31T21:15:25.000Z,-0.41
2023-03-31T21:18:30.882Z,-0.53
2023-03-31T21:21:36.304Z,-0.67
2023-03-31T21:24:39.858Z,-0.57
2023-03-31T21:27:43.459Z,-0.57
2023-03-31T21:30:58.659Z,-0.59
2023-03-31T21:34:03.157Z,-0.76
2023-03-31T21:37:09.496Z,-0.87
2023-03-31T21:40:14.868Z,-0.90
2023-03-31T21:43:18.543Z,-0.95
2023-03-31T21:46:28.045Z,-1.05
2023-03-31T21:49:33.126Z,-1.09
2023-03-31T21:52:36.764Z,-0.99
2023-03-31T21:55:40.739Z,-0.97
2023-03-31T21:58:44.570Z,-1.08
2023-03-31T22:01:48.396Z,-1.20
2023-03-31T22:04:51.530Z,-1.21
2023-03-31T22:07:55.546Z,-1.13
2023-03-31T22:11:00.776Z,-1.18
2023-03-31T22:14:05.082Z,-1.22
2023-03-31T22:17:08.905Z,-1.20
2023-03-31T22:20:13.295Z,-1.21
2023-03-31T22:23:17.320Z,-1.13
2023-03-31T22:26:22.653Z,-1.06
2023-03-31T22:29:26.379Z,-1.02
2023-03-31T22:32:29.642Z,-0.99
2023-03-31T22:35:32.813Z,-0.94
2023-03-31T22:38:37.145Z,-0.93
2023-03-31T22:41:40.016Z,-0.96
2023-03-31T22:44:44.064Z,-0.88
2023-03-31T22:47:47.156Z,-0.76
2023-03-31T22:50:51.122Z,-0.65
2023-03-31T22:53:55.420Z,-0.58
2023-03-31T22:56:59.688Z,-0.60
2023-03-31T23:00:04.524Z,-0.56
2023-03-31T23:03:08.613Z,-0.42
2023-03-31T23:06:13.767Z,-0.24
2023-03-31T23:09:18.035Z,-0.24
2023-03-31T23:12:21.832Z,-0.13
2023-03-31T23:15:25.827Z,-0.20
2023-03-31T23:18:30.906Z,-0.13
2023-03-31T23:21:35.432Z,-0.10
2023-03-31T23:24:39.181Z,-0.17
2023-03-31T23:27:43.133Z,-0.12
2023-03-31T23:30:57.109Z,0.13
2023-03-31T23:34:01.804Z,0.10
2023-03-31T23:37:05.453Z,0.16
2023-03-31T23:40:09.978Z,1.03
2023-03-31T23:43:14.198Z,3.64
2023-03-31T23:46:18.668Z,4.57
2023-03-31T23:49:22.751Z,4.68
2023-03-31T23:52:26.730Z,4.37
2023-03-31T23:55:30.965Z,5.19
2023-03-31T23:58:36.129Z,7.24
